Historique des mesures à Cassis (13260), France
Quotidien Résumé Septembre 12, 2017 Unités:  Métrique    US   Métrique/US
« Précédent (Jour)
Suivant (Jour) »
Quotidien Hebdomadaire Mensuel Annuel Période au choix
  Maximum: Minimum: Moyenne:
Température: TemperatureC °C 16.3 °C 19.2 °C
Point de rosée: DewpointC °C 5.3 °C 7.4 °C
Humidité: Humidity % 36 % 44 %
Vitesse du vent: 0 km/h 9.3 km/h 23 km/h
Rafales: 0 km/h - -
Vent:- - SW
Pression: PressurehPa hPa 1005.3 hPa -
Précipitations: 0.0 mm    
Historical Graphs
 
 
Mesures pour : Septembre 12, 2017
Heure Temperature Point de rosée Pression Vent Vitesse du vent Rafales Humidité Pluie (par heure) Conditions
TemperatureC °C DewpointC °C PressurehPa hPa Calm     Humidity % HourlyPrecipMM mm SoftwareType W/m2
00:11 19.4 °C 8.1 °C 1005.3 hPa NW 31.4 km/h 31.4 km/h 48 % 0.0 mm open2300-1.11 W/m2
01:11 18.9 °C 8.6 °C 1006.0 hPa WNW 30.1 km/h 30.1 km/h 51 % 0.0 mm open2300-1.11 W/m2
02:11 18.3 °C 8.8 °C 1006.3 hPa NNE 16.9 km/h 17.4 km/h 54 % 0.0 mm open2300-1.11 W/m2
03:11 17.9 °C 8.4 °C 1006.0 hPa NNW 17.9 km/h 23.8 km/h 54 % 0.0 mm open2300-1.11 W/m2
04:11 17.9 °C 8.4 °C 1006.3 hPa NNE 26.7 km/h 29.5 km/h 54 % 0.0 mm open2300-1.11 W/m2
06:11 17.1 °C 9.0 °C 1006.7 hPa NW 11.6 km/h 25.4 km/h 59 % 0.0 mm open2300-1.11 W/m2
07:11 16.6 °C 8.3 °C 1007.0 hPa North 9.8 km/h 16.3 km/h 58 % 0.0 mm open2300-1.11 W/m2
08:11 16.3 °C 8.1 °C 1007.3 hPa North 23 km/h 26.2 km/h 58 % 0.0 mm open2300-1.11 W/m2
09:11 16.9 °C 7.8 °C 1007.7 hPa NW 52.8 km/h 52.8 km/h 55 % 0.0 mm open2300-1.11 W/m2
10:11 17.8 °C 8.3 °C 1008.4 hPa NNW 23 km/h 47.3 km/h 54 % 0.0 mm open2300-1.11 W/m2
11:11 19.8 °C 8.4 °C 1008.4 hPa NW 20.3 km/h 66 km/h 48 % 0.0 mm open2300-1.11 W/m2
12:11 20.8 °C 7.7 °C 1009.0 hPa NNE 20.3 km/h 56.6 km/h 43 % 0.0 mm open2300-1.11 W/m2
13:11 21.6 °C 7.8 °C 1009.0 hPa NNW 40.7 km/h 51 km/h 41 % 0.0 mm open2300-1.11 W/m2
14:11 22.3 °C 8.1 °C 1009.4 hPa NW 42.2 km/h 52 km/h 40 % 0.0 mm open2300-1.11 W/m2
15:11 22.9 °C 7.8 °C 1009.4 hPa NW 13.2 km/h 40.7 km/h 38 % 0.0 mm open2300-1.11 W/m2
16:11 23.4 °C 7.8 °C 1009.4 hPa WNW 39.4 km/h 57.9 km/h 37 % 0.0 mm open2300-1.11 W/m2
17:11 23.5 °C 7.9 °C 1009.4 hPa NE 9.3 km/h 39.9 km/h 37 % 0.0 mm open2300-1.11 W/m2
18:11 22.9 °C 7.8 °C 1009.4 hPa NW 17.4 km/h 34.1 km/h 38 % 0.0 mm open2300-1.11 W/m2
19:11 22.8 °C 6.8 °C 1009.7 hPa NNW 13.2 km/h 20.3 km/h 36 % 0.0 mm open2300-1.11 W/m2
20:11 21.8 °C 6.0 °C 1011.1 hPa NNW 32.3 km/h 32.3 km/h 36 % 0.0 mm open2300-1.11 W/m2
21:11 21.2 °C 5.8 °C 1011.7 hPa NW 20.9 km/h 20.9 km/h 37 % 0.0 mm open2300-1.11 W/m2
22:11 20.6 °C 5.3 °C 1012.8 hPa NNE 13.2 km/h 28.5 km/h 37 % 0.0 mm open2300-1.11 W/m2
23:11 20.1 °C 6.4 °C 1013.1 hPa NE 24.8 km/h 38.8 km/h 41 % 0.0 mm open2300-1.11 W/m2
Observations météo à CASSIS
WU-History script by Weather Underground - 1 mb